sensor_id;sensor_type;location;lat;lon;timestamp;P1;durP1;ratioP1;P2;durP2;ratioP2
9823;SDS011;4951;50.778;7.196;2023-04-01T00:00:38;0.87;;;0.80;;
9823;SDS011;4951;50.778;7.196;2023-04-01T00:03:14;1.07;;;0.80;;
9823;SDS011;4951;50.778;7.196;2023-04-01T00:05:55;2.67;;;1.10;;
9823;SDS011;4951;50.778;7.196;2023-04-01T00:09:01;1.83;;;0.93;;
9823;SDS011;4951;50.778;7.196;2023-04-01T00:11:42;1.70;;;1.00;;
9823;SDS011;4951;50.778;7.196;2023-04-01T00:14:25;2.97;;;1.10;;
9823;SDS011;4951;50.778;7.196;2023-04-01T00:17:28;1.20;;;1.00;;
9823;SDS011;4951;50.778;7.196;2023-04-01T00:20:32;1.60;;;1.03;;
9823;SDS011;4951;50.778;7.196;2023-04-01T00:23:00;1.23;;;0.90;;
9823;SDS011;4951;50.778;7.196;2023-04-01T00:26:00;1.93;;;1.00;;
9823;SDS011;4951;50.778;7.196;2023-04-01T00:28:53;1.40;;;1.10;;
9823;SDS011;4951;50.778;7.196;2023-04-01T00:31:26;0.83;;;0.83;;
9823;SDS011;4951;50.778;7.196;2023-04-01T00:37:14;1.17;;;1.00;;
9823;SDS011;4951;50.778;7.196;2023-04-01T00:39:53;1.10;;;0.80;;
9823;SDS011;4951;50.778;7.196;2023-04-01T00:42:29;1.70;;;1.00;;
9823;SDS011;4951;50.778;7.196;2023-04-01T00:44:58;1.97;;;0.93;;
9823;SDS011;4951;50.778;7.196;2023-04-01T00:48:12;1.60;;;0.90;;
9823;SDS011;4951;50.778;7.196;2023-04-01T00:51:00;1.57;;;0.90;;
9823;SDS011;4951;50.778;7.196;2023-04-01T00:53:43;1.30;;;0.97;;
9823;SDS011;4951;50.778;7.196;2023-04-01T00:56:24;1.20;;;0.80;;
9823;SDS011;4951;50.778;7.196;2023-04-01T00:59:02;1.97;;;1.03;;
9823;SDS011;4951;50.778;7.196;2023-04-01T01:04:41;1.27;;;1.00;;
9823;SDS011;4951;50.778;7.196;2023-04-01T01:07:13;1.40;;;1.00;;
9823;SDS011;4951;50.778;7.196;2023-04-01T01:09:50;0.90;;;0.90;;
9823;SDS011;4951;50.778;7.196;2023-04-01T01:12:35;1.43;;;1.10;;
9823;SDS011;4951;50.778;7.196;2023-04-01T01:15:10;2.30;;;1.00;;
9823;SDS011;4951;50.778;7.196;2023-04-01T01:18:05;2.03;;;1.07;;
9823;SDS011;4951;50.778;7.196;2023-04-01T01:27:09;2.10;;;0.87;;
9823;SDS011;4951;50.778;7.196;2023-04-01T01:29:50;1.13;;;0.93;;
9823;SDS011;4951;50.778;7.196;2023-04-01T01:36:03;1.00;;;0.90;;
9823;SDS011;4951;50.778;7.196;2023-04-01T01:38:44;0.80;;;0.80;;
9823;SDS011;4951;50.778;7.196;2023-04-01T01:41:19;2.77;;;1.00;;
9823;SDS011;4951;50.778;7.196;2023-04-01T01:44:02;0.70;;;0.70;;
9823;SDS011;4951;50.778;7.196;2023-04-01T01:46:55;1.73;;;1.00;;
9823;SDS011;4951;50.778;7.196;2023-04-01T01:49:24;1.30;;;0.93;;
9823;SDS011;4951;50.778;7.196;2023-04-01T01:52:03;0.70;;;0.70;;
9823;SDS011;4951;50.778;7.196;2023-04-01T01:54:49;1.57;;;0.90;;
9823;SDS011;4951;50.778;7.196;2023-04-01T01:57:26;1.00;;;0.80;;
9823;SDS011;4951;50.778;7.196;2023-04-01T02:00:18;1.30;;;0.90;;
9823;SDS011;4951;50.778;7.196;2023-04-01T02:03:00;0.87;;;0.80;;
9823;SDS011;4951;50.778;7.196;2023-04-01T02:05:46;1.90;;;0.90;;
9823;SDS011;4951;50.778;7.196;2023-04-01T02:08:29;1.07;;;0.93;;
9823;SDS011;4951;50.778;7.196;2023-04-01T02:11:17;1.07;;;0.90;;
9823;SDS011;4951;50.778;7.196;2023-04-01T02:14:19;0.83;;;0.80;;
9823;SDS011;4951;50.778;7.196;2023-04-01T02:17:02;0.73;;;0.73;;
9823;SDS011;4951;50.778;7.196;2023-04-01T02:19:36;0.87;;;0.80;;
9823;SDS011;4951;50.778;7.196;2023-04-01T02:22:15;0.90;;;0.80;;
9823;SDS011;4951;50.778;7.196;2023-04-01T02:24:49;2.33;;;0.87;;
9823;SDS011;4951;50.778;7.196;2023-04-01T02:27:34;1.43;;;0.90;;
9823;SDS011;4951;50.778;7.196;2023-04-01T02:30:17;0.87;;;0.80;;
9823;SDS011;4951;50.778;7.196;2023-04-01T02:32:52;0.97;;;0.90;;
9823;SDS011;4951;50.778;7.196;2023-04-01T02:35:25;1.70;;;0.90;;
9823;SDS011;4951;50.778;7.196;2023-04-01T02:37:56;0.80;;;0.80;;
9823;SDS011;4951;50.778;7.196;2023-04-01T02:40:40;1.30;;;0.80;;
9823;SDS011;4951;50.778;7.196;2023-04-01T02:43:29;2.63;;;0.80;;
9823;SDS011;4951;50.778;7.196;2023-04-01T02:46:03;1.00;;;0.80;;
9823;SDS011;4951;50.778;7.196;2023-04-01T02:48:43;1.43;;;0.80;;
9823;SDS011;4951;50.778;7.196;2023-04-01T02:51:13;0.83;;;0.73;;
9823;SDS011;4951;50.778;7.196;2023-04-01T02:53:41;0.70;;;0.70;;
9823;SDS011;4951;50.778;7.196;2023-04-01T02:56:37;1.57;;;0.80;;
9823;SDS011;4951;50.778;7.196;2023-04-01T02:59:08;0.70;;;0.70;;
9823;SDS011;4951;50.778;7.196;2023-04-01T03:01:41;1.30;;;0.83;;
9823;SDS011;4951;50.778;7.196;2023-04-01T03:04:21;0.80;;;0.80;;
9823;SDS011;4951;50.778;7.196;2023-04-01T03:06:54;1.20;;;0.80;;
9823;SDS011;4951;50.778;7.196;2023-04-01T03:09:33;1.37;;;1.00;;
9823;SDS011;4951;50.778;7.196;2023-04-01T03:12:01;1.03;;;0.90;;
9823;SDS011;4951;50.778;7.196;2023-04-01T03:14:49;1.37;;;0.80;;
9823;SDS011;4951;50.778;7.196;2023-04-01T03:17:26;1.50;;;0.80;;
9823;SDS011;4951;50.778;7.196;2023-04-01T03:22:43;0.70;;;0.70;;
9823;SDS011;4951;50.778;7.196;2023-04-01T03:25:20;0.77;;;0.70;;
9823;SDS011;4951;50.778;7.196;2023-04-01T03:28:06;1.03;;;0.70;;
9823;SDS011;4951;50.778;7.196;2023-04-01T03:30:36;1.17;;;0.83;;
9823;SDS011;4951;50.778;7.196;2023-04-01T03:33:05;1.03;;;0.70;;
9823;SDS011;4951;50.778;7.196;2023-04-01T03:35:46;2.20;;;1.00;;
9823;SDS011;4951;50.778;7.196;2023-04-01T03:38:29;1.00;;;0.73;;
9823;SDS011;4951;50.778;7.196;2023-04-01T03:40:58;1.10;;;0.80;;
9823;SDS011;4951;50.778;7.196;2023-04-01T03:43:36;0.73;;;0.70;;
9823;SDS011;4951;50.778;7.196;2023-04-01T03:46:16;0.93;;;0.90;;
9823;SDS011;4951;50.778;7.196;2023-04-01T03:48:44;1.37;;;0.80;;
9823;SDS011;4951;50.778;7.196;2023-04-01T03:51:22;2.20;;;0.80;;
9823;SDS011;4951;50.778;7.196;2023-04-01T03:53:55;0.80;;;0.80;;
9823;SDS011;4951;50.778;7.196;2023-04-01T03:56:28;1.90;;;0.80;;
9823;SDS011;4951;50.778;7.196;2023-04-01T03:59:05;0.70;;;0.70;;
9823;SDS011;4951;50.778;7.196;2023-04-01T04:01:42;2.70;;;0.80;;
9823;SDS011;4951;50.778;7.196;2023-04-01T04:04:11;1.40;;;0.80;;
9823;SDS011;4951;50.778;7.196;2023-04-01T04:06:40;0.70;;;0.70;;
9823;SDS011;4951;50.778;7.196;2023-04-01T04:09:24;1.53;;;0.80;;
9823;SDS011;4951;50.778;7.196;2023-04-01T04:11:52;0.93;;;0.90;;
9823;SDS011;4951;50.778;7.196;2023-04-01T04:14:28;0.70;;;0.70;;
9823;SDS011;4951;50.778;7.196;2023-04-01T04:16:58;0.70;;;0.70;;
9823;SDS011;4951;50.778;7.196;2023-04-01T04:19:30;1.43;;;0.70;;
9823;SDS011;4951;50.778;7.196;2023-04-01T04:22:23;1.17;;;0.90;;
9823;SDS011;4951;50.778;7.196;2023-04-01T04:24:55;0.80;;;0.70;;
9823;SDS011;4951;50.778;7.196;2023-04-01T04:27:28;0.60;;;0.60;;
9823;SDS011;4951;50.778;7.196;2023-04-01T04:30:07;0.97;;;0.70;;
9823;SDS011;4951;50.778;7.196;2023-04-01T04:32:50;0.60;;;0.60;;
9823;SDS011;4951;50.778;7.196;2023-04-01T04:35:28;0.43;;;0.43;;
9823;SDS011;4951;50.778;7.196;2023-04-01T04:37:55;1.20;;;0.70;;
9823;SDS011;4951;50.778;7.196;2023-04-01T04:40:24;0.60;;;0.60;;
9823;SDS011;4951;50.778;7.196;2023-04-01T04:43:08;0.70;;;0.70;;
9823;SDS011;4951;50.778;7.196;2023-04-01T04:45:52;0.60;;;0.60;;
9823;SDS011;4951;50.778;7.196;2023-04-01T04:48:33;0.70;;;0.70;;
9823;SDS011;4951;50.778;7.196;2023-04-01T04:51:02;0.80;;;0.80;;
9823;SDS011;4951;50.778;7.196;2023-04-01T04:53:31;0.70;;;0.70;;
9823;SDS011;4951;50.778;7.196;2023-04-01T04:56:03;0.60;;;0.60;;
9823;SDS011;4951;50.778;7.196;2023-04-01T04:58:49;0.60;;;0.60;;
9823;SDS011;4951;50.778;7.196;2023-04-01T05:01:24;0.60;;;0.60;;
9823;SDS011;4951;50.778;7.196;2023-04-01T05:03:58;0.60;;;0.60;;
9823;SDS011;4951;50.778;7.196;2023-04-01T05:06:44;0.87;;;0.80;;
9823;SDS011;4951;50.778;7.196;2023-04-01T05:09:17;0.63;;;0.63;;
9823;SDS011;4951;50.778;7.196;2023-04-01T05:15:14;0.80;;;0.80;;
9823;SDS011;4951;50.778;7.196;2023-04-01T05:18:12;0.63;;;0.63;;
9823;SDS011;4951;50.778;7.196;2023-04-01T05:20:56;0.70;;;0.70;;
9823;SDS011;4951;50.778;7.196;2023-04-01T05:23:47;0.73;;;0.73;;
9823;SDS011;4951;50.778;7.196;2023-04-01T05:26:18;0.60;;;0.60;;
9823;SDS011;4951;50.778;7.196;2023-04-01T05:28:59;0.60;;;0.60;;
9823;SDS011;4951;50.778;7.196;2023-04-01T05:31:29;0.60;;;0.60;;
9823;SDS011;4951;50.778;7.196;2023-04-01T05:34:00;0.83;;;0.60;;
9823;SDS011;4951;50.778;7.196;2023-04-01T05:36:30;0.60;;;0.60;;
9823;SDS011;4951;50.778;7.196;2023-04-01T05:38:58;0.63;;;0.63;;
9823;SDS011;4951;50.778;7.196;2023-04-01T05:41:26;0.70;;;0.70;;
9823;SDS011;4951;50.778;7.196;2023-04-01T05:43:56;0.60;;;0.60;;
9823;SDS011;4951;50.778;7.196;2023-04-01T05:46:39;0.60;;;0.60;;
9823;SDS011;4951;50.778;7.196;2023-04-01T05:49:27;0.70;;;0.70;;
9823;SDS011;4951;50.778;7.196;2023-04-01T05:52:04;0.60;;;0.60;;
9823;SDS011;4951;50.778;7.196;2023-04-01T05:54:51;0.70;;;0.70;;
9823;SDS011;4951;50.778;7.196;2023-04-01T05:57:20;0.60;;;0.60;;
9823;SDS011;4951;50.778;7.196;2023-04-01T05:59:47;0.63;;;0.63;;
9823;SDS011;4951;50.778;7.196;2023-04-01T06:02:24;1.17;;;0.70;;
9823;SDS011;4951;50.778;7.196;2023-04-01T06:05:00;0.77;;;0.77;;
9823;SDS011;4951;50.778;7.196;2023-04-01T06:07:39;0.63;;;0.63;;
9823;SDS011;4951;50.778;7.196;2023-04-01T06:10:14;1.67;;;0.80;;
9823;SDS011;4951;50.778;7.196;2023-04-01T06:12:58;0.70;;;0.70;;
9823;SDS011;4951;50.778;7.196;2023-04-01T06:15:50;0.83;;;0.70;;
9823;SDS011;4951;50.778;7.196;2023-04-01T06:18:35;1.17;;;0.70;;
9823;SDS011;4951;50.778;7.196;2023-04-01T06:21:49;0.70;;;0.63;;
9823;SDS011;4951;50.778;7.196;2023-04-01T06:24:43;0.80;;;0.80;;
9823;SDS011;4951;50.778;7.196;2023-04-01T06:27:51;0.87;;;0.80;;
9823;SDS011;4951;50.778;7.196;2023-04-01T06:30:35;1.10;;;0.80;;
9823;SDS011;4951;50.778;7.196;2023-04-01T06:33:19;0.80;;;0.80;;
9823;SDS011;4951;50.778;7.196;2023-04-01T06:36:19;0.70;;;0.70;;
9823;SDS011;4951;50.778;7.196;2023-04-01T06:42:20;0.97;;;0.90;;
9823;SDS011;4951;50.778;7.196;2023-04-01T06:45:34;0.90;;;0.90;;
9823;SDS011;4951;50.778;7.196;2023-04-01T06:49:09;1.30;;;0.70;;
9823;SDS011;4951;50.778;7.196;2023-04-01T06:52:41;0.77;;;0.77;;
9823;SDS011;4951;50.778;7.196;2023-04-01T06:55:44;0.80;;;0.80;;
9823;SDS011;4951;50.778;7.196;2023-04-01T06:58:31;1.07;;;0.80;;
9823;SDS011;4951;50.778;7.196;2023-04-01T07:01:28;0.60;;;0.60;;
9823;SDS011;4951;50.778;7.196;2023-04-01T07:04:05;0.73;;;0.70;;
9823;SDS011;4951;50.778;7.196;2023-04-01T07:06:44;0.90;;;0.90;;
9823;SDS011;4951;50.778;7.196;2023-04-01T07:09:26;0.70;;;0.70;;
9823;SDS011;4951;50.778;7.196;2023-04-01T07:12:41;0.70;;;0.70;;
9823;SDS011;4951;50.778;7.196;2023-04-01T07:15:46;0.70;;;0.70;;
9823;SDS011;4951;50.778;7.196;2023-04-01T07:18:30;0.80;;;0.80;;
9823;SDS011;4951;50.778;7.196;2023-04-01T07:21:03;0.87;;;0.87;;
9823;SDS011;4951;50.778;7.196;2023-04-01T07:23:45;0.83;;;0.80;;
9823;SDS011;4951;50.778;7.196;2023-04-01T07:26:40;1.50;;;0.80;;
9823;SDS011;4951;50.778;7.196;2023-04-01T07:29:28;0.90;;;0.90;;
9823;SDS011;4951;50.778;7.196;2023-04-01T07:34:54;1.33;;;0.83;;
9823;SDS011;4951;50.778;7.196;2023-04-01T07:37:31;1.00;;;1.00;;
9823;SDS011;4951;50.778;7.196;2023-04-01T07:40:09;1.13;;;0.90;;
9823;SDS011;4951;50.778;7.196;2023-04-01T07:42:55;1.00;;;1.00;;
9823;SDS011;4951;50.778;7.196;2023-04-01T07:45:52;0.93;;;0.90;;
9823;SDS011;4951;50.778;7.196;2023-04-01T07:48:33;0.90;;;0.90;;
9823;SDS011;4951;50.778;7.196;2023-04-01T07:51:13;0.90;;;0.90;;
9823;SDS011;4951;50.778;7.196;2023-04-01T07:53:44;0.90;;;0.90;;
9823;SDS011;4951;50.778;7.196;2023-04-01T07:56:22;1.47;;;1.10;;
9823;SDS011;4951;50.778;7.196;2023-04-01T07:58:57;0.90;;;0.90;;
9823;SDS011;4951;50.778;7.196;2023-04-01T08:02:19;1.63;;;0.80;;
9823;SDS011;4951;50.778;7.196;2023-04-01T08:05:01;1.40;;;0.90;;
9823;SDS011;4951;50.778;7.196;2023-04-01T08:07:43;1.17;;;1.07;;
9823;SDS011;4951;50.778;7.196;2023-04-01T08:10:46;0.87;;;0.87;;
9823;SDS011;4951;50.778;7.196;2023-04-01T08:13:52;0.90;;;0.90;;
9823;SDS011;4951;50.778;7.196;2023-04-01T08:17:24;0.97;;;0.90;;
9823;SDS011;4951;50.778;7.196;2023-04-01T08:20:12;0.97;;;0.97;;
9823;SDS011;4951;50.778;7.196;2023-04-01T08:22:57;1.00;;;1.00;;
9823;SDS011;4951;50.778;7.196;2023-04-01T08:25:39;1.00;;;0.90;;
9823;SDS011;4951;50.778;7.196;2023-04-01T08:28:19;1.20;;;0.93;;
9823;SDS011;4951;50.778;7.196;2023-04-01T08:31:10;1.00;;;0.90;;
9823;SDS011;4951;50.778;7.196;2023-04-01T08:33:47;0.70;;;0.70;;
9823;SDS011;4951;50.778;7.196;2023-04-01T08:36:16;0.80;;;0.80;;
9823;SDS011;4951;50.778;7.196;2023-04-01T08:38:57;0.97;;;0.80;;
9823;SDS011;4951;50.778;7.196;2023-04-01T08:41:39;1.00;;;0.90;;
9823;SDS011;4951;50.778;7.196;2023-04-01T08:48:19;1.00;;;1.00;;
9823;SDS011;4951;50.778;7.196;2023-04-01T08:54:16;0.97;;;0.97;;
9823;SDS011;4951;50.778;7.196;2023-04-01T08:56:59;1.50;;;1.03;;
9823;SDS011;4951;50.778;7.196;2023-04-01T08:59:58;1.00;;;1.00;;
9823;SDS011;4951;50.778;7.196;2023-04-01T09:06:23;1.10;;;0.87;;
9823;SDS011;4951;50.778;7.196;2023-04-01T09:12:10;0.80;;;0.80;;
9823;SDS011;4951;50.778;7.196;2023-04-01T09:15:28;0.77;;;0.77;;
9823;SDS011;4951;50.778;7.196;2023-04-01T09:18:34;0.83;;;0.80;;
9823;SDS011;4951;50.778;7.196;2023-04-01T09:21:27;1.30;;;0.80;;
9823;SDS011;4951;50.778;7.196;2023-04-01T09:27:28;0.70;;;0.70;;
9823;SDS011;4951;50.778;7.196;2023-04-01T09:30:35;0.77;;;0.77;;
9823;SDS011;4951;50.778;7.196;2023-04-01T09:33:42;0.80;;;0.80;;
9823;SDS011;4951;50.778;7.196;2023-04-01T09:37:10;1.50;;;0.83;;
9823;SDS011;4951;50.778;7.196;2023-04-01T09:40:03;1.00;;;1.00;;
9823;SDS011;4951;50.778;7.196;2023-04-01T09:46:27;0.80;;;0.80;;
9823;SDS011;4951;50.778;7.196;2023-04-01T09:52:30;1.00;;;1.00;;
9823;SDS011;4951;50.778;7.196;2023-04-01T09:55:42;1.53;;;0.90;;
9823;SDS011;4951;50.778;7.196;2023-04-01T09:59:09;0.90;;;0.90;;
9823;SDS011;4951;50.778;7.196;2023-04-01T10:02:28;0.80;;;0.80;;
9823;SDS011;4951;50.778;7.196;2023-04-01T10:05:29;1.00;;;0.90;;
9823;SDS011;4951;50.778;7.196;2023-04-01T10:08:48;0.90;;;0.80;;
9823;SDS011;4951;50.778;7.196;2023-04-01T10:15:31;0.70;;;0.70;;
9823;SDS011;4951;50.778;7.196;2023-04-01T10:21:07;0.70;;;0.70;;
9823;SDS011;4951;50.778;7.196;2023-04-01T10:27:22;0.90;;;0.90;;
9823;SDS011;4951;50.778;7.196;2023-04-01T10:31:03;0.80;;;0.80;;
9823;SDS011;4951;50.778;7.196;2023-04-01T10:34:34;0.87;;;0.80;;
9823;SDS011;4951;50.778;7.196;2023-04-01T10:37:42;0.83;;;0.83;;
9823;SDS011;4951;50.778;7.196;2023-04-01T10:40:43;0.80;;;0.80;;
9823;SDS011;4951;50.778;7.196;2023-04-01T10:46:55;0.80;;;0.80;;
9823;SDS011;4951;50.778;7.196;2023-04-01T10:53:27;0.90;;;0.90;;
9823;SDS011;4951;50.778;7.196;2023-04-01T10:56:36;0.70;;;0.70;;
9823;SDS011;4951;50.778;7.196;2023-04-01T11:06:51;0.87;;;0.87;;
9823;SDS011;4951;50.778;7.196;2023-04-01T11:10:00;0.80;;;0.80;;
9823;SDS011;4951;50.778;7.196;2023-04-01T11:13:18;0.80;;;0.80;;
9823;SDS011;4951;50.778;7.196;2023-04-01T11:16:14;0.87;;;0.87;;
9823;SDS011;4951;50.778;7.196;2023-04-01T11:22:42;0.80;;;0.80;;
9823;SDS011;4951;50.778;7.196;2023-04-01T11:25:42;0.80;;;0.80;;
9823;SDS011;4951;50.778;7.196;2023-04-01T11:29:27;0.90;;;0.90;;
9823;SDS011;4951;50.778;7.196;2023-04-01T11:32:35;0.77;;;0.77;;
9823;SDS011;4951;50.778;7.196;2023-04-01T11:35:19;1.00;;;1.00;;
9823;SDS011;4951;50.778;7.196;2023-04-01T11:41:48;1.10;;;1.00;;
9823;SDS011;4951;50.778;7.196;2023-04-01T11:44:47;1.40;;;1.00;;
9823;SDS011;4951;50.778;7.196;2023-04-01T11:47:39;0.80;;;0.80;;
9823;SDS011;4951;50.778;7.196;2023-04-01T11:50:25;1.00;;;0.90;;
9823;SDS011;4951;50.778;7.196;2023-04-01T11:53:20;0.80;;;0.80;;
9823;SDS011;4951;50.778;7.196;2023-04-01T11:56:06;1.03;;;0.90;;
9823;SDS011;4951;50.778;7.196;2023-04-01T11:59:02;1.00;;;0.90;;
9823;SDS011;4951;50.778;7.196;2023-04-01T12:01:51;0.90;;;0.90;;
9823;SDS011;4951;50.778;7.196;2023-04-01T12:07:25;0.80;;;0.80;;
9823;SDS011;4951;50.778;7.196;2023-04-01T12:13:24;0.90;;;0.90;;
9823;SDS011;4951;50.778;7.196;2023-04-01T12:19:09;1.17;;;0.90;;
9823;SDS011;4951;50.778;7.196;2023-04-01T12:21:52;0.93;;;0.93;;
9823;SDS011;4951;50.778;7.196;2023-04-01T12:24:38;1.17;;;1.00;;
9823;SDS011;4951;50.778;7.196;2023-04-01T12:27:26;0.90;;;0.90;;
9823;SDS011;4951;50.778;7.196;2023-04-01T12:33:18;0.90;;;0.90;;
9823;SDS011;4951;50.778;7.196;2023-04-01T12:42:16;0.90;;;0.90;;
9823;SDS011;4951;50.778;7.196;2023-04-01T12:45:02;1.00;;;1.00;;
9823;SDS011;4951;50.778;7.196;2023-04-01T12:57:55;1.03;;;1.00;;
9823;SDS011;4951;50.778;7.196;2023-04-01T13:00:46;1.10;;;1.10;;
9823;SDS011;4951;50.778;7.196;2023-04-01T13:03:47;0.93;;;0.93;;
9823;SDS011;4951;50.778;7.196;2023-04-01T13:06:46;0.80;;;0.80;;
9823;SDS011;4951;50.778;7.196;2023-04-01T13:09:45;0.80;;;0.80;;
9823;SDS011;4951;50.778;7.196;2023-04-01T13:12:27;0.80;;;0.80;;
9823;SDS011;4951;50.778;7.196;2023-04-01T13:15:14;0.80;;;0.80;;
9823;SDS011;4951;50.778;7.196;2023-04-01T13:18:21;1.10;;;1.00;;
9823;SDS011;4951;50.778;7.196;2023-04-01T13:21:15;0.97;;;0.97;;
9823;SDS011;4951;50.778;7.196;2023-04-01T13:23:56;0.97;;;0.87;;
9823;SDS011;4951;50.778;7.196;2023-04-01T13:26:39;0.80;;;0.80;;
9823;SDS011;4951;50.778;7.196;2023-04-01T13:29:36;0.93;;;0.80;;
9823;SDS011;4951;50.778;7.196;2023-04-01T13:32:20;0.90;;;0.90;;
9823;SDS011;4951;50.778;7.196;2023-04-01T13:34:59;0.80;;;0.80;;
9823;SDS011;4951;50.778;7.196;2023-04-01T13:37:52;0.90;;;0.90;;
9823;SDS011;4951;50.778;7.196;2023-04-01T13:40:49;0.93;;;0.93;;
9823;SDS011;4951;50.778;7.196;2023-04-01T13:43:30;0.97;;;0.93;;
9823;SDS011;4951;50.778;7.196;2023-04-01T13:46:07;0.90;;;0.90;;
9823;SDS011;4951;50.778;7.196;2023-04-01T13:52:25;1.03;;;0.90;;
9823;SDS011;4951;50.778;7.196;2023-04-01T13:55:24;1.00;;;1.00;;
9823;SDS011;4951;50.778;7.196;2023-04-01T14:01:28;0.80;;;0.80;;
9823;SDS011;4951;50.778;7.196;2023-04-01T14:04:21;1.00;;;1.00;;
9823;SDS011;4951;50.778;7.196;2023-04-01T14:07:31;1.03;;;1.00;;
9823;SDS011;4951;50.778;7.196;2023-04-01T14:10:25;0.80;;;0.80;;
9823;SDS011;4951;50.778;7.196;2023-04-01T14:13:31;1.17;;;0.90;;
9823;SDS011;4951;50.778;7.196;2023-04-01T14:16:48;0.90;;;0.90;;
9823;SDS011;4951;50.778;7.196;2023-04-01T14:19:40;1.30;;;1.20;;
9823;SDS011;4951;50.778;7.196;2023-04-01T14:22:25;1.40;;;1.30;;
9823;SDS011;4951;50.778;7.196;2023-04-01T14:25:28;1.40;;;1.30;;
9823;SDS011;4951;50.778;7.196;2023-04-01T14:28:07;1.63;;;1.30;;
9823;SDS011;4951;50.778;7.196;2023-04-01T14:31:03;1.30;;;1.20;;
9823;SDS011;4951;50.778;7.196;2023-04-01T14:33:51;1.80;;;1.70;;
9823;SDS011;4951;50.778;7.196;2023-04-01T14:36:34;1.40;;;1.30;;
9823;SDS011;4951;50.778;7.196;2023-04-01T14:39:21;1.37;;;1.27;;
9823;SDS011;4951;50.778;7.196;2023-04-01T14:42:13;1.63;;;1.20;;
9823;SDS011;4951;50.778;7.196;2023-04-01T14:45:12;1.50;;;1.10;;
9823;SDS011;4951;50.778;7.196;2023-04-01T14:48:15;1.53;;;1.20;;
9823;SDS011;4951;50.778;7.196;2023-04-01T14:51:02;1.27;;;1.00;;
9823;SDS011;4951;50.778;7.196;2023-04-01T14:53:35;1.03;;;1.03;;
9823;SDS011;4951;50.778;7.196;2023-04-01T14:56:07;1.20;;;1.10;;
9823;SDS011;4951;50.778;7.196;2023-04-01T14:58:41;1.00;;;1.00;;
9823;SDS011;4951;50.778;7.196;2023-04-01T15:01:19;1.83;;;1.10;;
9823;SDS011;4951;50.778;7.196;2023-04-01T15:04:13;1.10;;;1.00;;
9823;SDS011;4951;50.778;7.196;2023-04-01T15:07:18;1.33;;;1.20;;
9823;SDS011;4951;50.778;7.196;2023-04-01T15:10:49;1.40;;;1.30;;
9823;SDS011;4951;50.778;7.196;2023-04-01T15:14:16;1.00;;;1.00;;
9823;SDS011;4951;50.778;7.196;2023-04-01T15:20:17;1.10;;;1.00;;
9823;SDS011;4951;50.778;7.196;2023-04-01T15:26:32;2.17;;;1.13;;
9823;SDS011;4951;50.778;7.196;2023-04-01T15:29:29;1.00;;;1.00;;
9823;SDS011;4951;50.778;7.196;2023-04-01T15:32:15;1.00;;;1.00;;
9823;SDS011;4951;50.778;7.196;2023-04-01T15:34:48;1.10;;;1.00;;
9823;SDS011;4951;50.778;7.196;2023-04-01T15:37:36;1.33;;;0.93;;
9823;SDS011;4951;50.778;7.196;2023-04-01T15:40:17;1.00;;;1.00;;
9823;SDS011;4951;50.778;7.196;2023-04-01T15:42:56;1.37;;;1.27;;
9823;SDS011;4951;50.778;7.196;2023-04-01T15:46:08;1.07;;;1.00;;
9823;SDS011;4951;50.778;7.196;2023-04-01T15:49:01;1.00;;;1.00;;
9823;SDS011;4951;50.778;7.196;2023-04-01T15:51:46;1.30;;;1.20;;
9823;SDS011;4951;50.778;7.196;2023-04-01T15:54:26;1.47;;;1.37;;
9823;SDS011;4951;50.778;7.196;2023-04-01T15:57:52;1.63;;;1.47;;
9823;SDS011;4951;50.778;7.196;2023-04-01T16:00:46;1.40;;;1.30;;
9823;SDS011;4951;50.778;7.196;2023-04-01T16:03:28;1.60;;;1.50;;
9823;SDS011;4951;50.778;7.196;2023-04-01T16:12:37;1.80;;;1.70;;
9823;SDS011;4951;50.778;7.196;2023-04-01T16:15:17;1.93;;;1.70;;
9823;SDS011;4951;50.778;7.196;2023-04-01T16:21:21;1.80;;;1.70;;
9823;SDS011;4951;50.778;7.196;2023-04-01T16:24:10;1.70;;;1.60;;
9823;SDS011;4951;50.778;7.196;2023-04-01T16:26:54;1.60;;;1.50;;
9823;SDS011;4951;50.778;7.196;2023-04-01T16:29:38;2.27;;;2.07;;
9823;SDS011;4951;50.778;7.196;2023-04-01T16:35:19;1.97;;;1.87;;
9823;SDS011;4951;50.778;7.196;2023-04-01T16:37:59;2.27;;;2.10;;
9823;SDS011;4951;50.778;7.196;2023-04-01T16:43:45;1.80;;;1.70;;
9823;SDS011;4951;50.778;7.196;2023-04-01T16:46:43;2.00;;;1.90;;
9823;SDS011;4951;50.778;7.196;2023-04-01T16:49:25;2.30;;;2.10;;
9823;SDS011;4951;50.778;7.196;2023-04-01T16:52:34;2.20;;;2.00;;
9823;SDS011;4951;50.778;7.196;2023-04-01T16:55:14;2.77;;;2.20;;
9823;SDS011;4951;50.778;7.196;2023-04-01T16:57:47;1.97;;;1.87;;
9823;SDS011;4951;50.778;7.196;2023-04-01T17:00:28;1.80;;;1.70;;
9823;SDS011;4951;50.778;7.196;2023-04-01T17:03:10;1.97;;;1.70;;
9823;SDS011;4951;50.778;7.196;2023-04-01T17:05:54;2.80;;;1.70;;
9823;SDS011;4951;50.778;7.196;2023-04-01T17:14:49;1.50;;;1.40;;
9823;SDS011;4951;50.778;7.196;2023-04-01T17:17:36;1.60;;;1.50;;
9823;SDS011;4951;50.778;7.196;2023-04-01T17:20:31;1.73;;;1.60;;
9823;SDS011;4951;50.778;7.196;2023-04-01T17:23:10;1.70;;;1.60;;
9823;SDS011;4951;50.778;7.196;2023-04-01T17:25:54;1.87;;;1.73;;
9823;SDS011;4951;50.778;7.196;2023-04-01T17:28:40;2.30;;;1.70;;
9823;SDS011;4951;50.778;7.196;2023-04-01T17:32:02;2.10;;;1.80;;
9823;SDS011;4951;50.778;7.196;2023-04-01T17:37:53;4.33;;;3.30;;
9823;SDS011;4951;50.778;7.196;2023-04-01T17:40:38;1.70;;;1.60;;
9823;SDS011;4951;50.778;7.196;2023-04-01T17:43:50;1.67;;;1.57;;
9823;SDS011;4951;50.778;7.196;2023-04-01T17:47:14;1.53;;;1.43;;
9823;SDS011;4951;50.778;7.196;2023-04-01T17:49:57;1.57;;;1.47;;
9823;SDS011;4951;50.778;7.196;2023-04-01T17:52:39;1.60;;;1.50;;
9823;SDS011;4951;50.778;7.196;2023-04-01T17:55:25;1.50;;;1.40;;
9823;SDS011;4951;50.778;7.196;2023-04-01T17:58:21;1.53;;;1.43;;
9823;SDS011;4951;50.778;7.196;2023-04-01T18:01:13;1.63;;;1.53;;
9823;SDS011;4951;50.778;7.196;2023-04-01T18:13:00;2.50;;;1.87;;
9823;SDS011;4951;50.778;7.196;2023-04-01T18:15:59;3.30;;;2.20;;
9823;SDS011;4951;50.778;7.196;2023-04-01T18:18:56;1.80;;;1.70;;
9823;SDS011;4951;50.778;7.196;2023-04-01T18:21:49;2.80;;;2.50;;
9823;SDS011;4951;50.778;7.196;2023-04-01T18:24:30;2.37;;;2.17;;
9823;SDS011;4951;50.778;7.196;2023-04-01T18:27:03;3.83;;;1.87;;
9823;SDS011;4951;50.778;7.196;2023-04-01T18:29:49;2.03;;;1.90;;
9823;SDS011;4951;50.778;7.196;2023-04-01T18:32:25;1.73;;;1.63;;
9823;SDS011;4951;50.778;7.196;2023-04-01T18:35:00;2.30;;;1.73;;
9823;SDS011;4951;50.778;7.196;2023-04-01T18:40:32;2.53;;;2.00;;
9823;SDS011;4951;50.778;7.196;2023-04-01T18:43:12;2.97;;;1.90;;
9823;SDS011;4951;50.778;7.196;2023-04-01T18:45:54;2.73;;;2.20;;
9823;SDS011;4951;50.778;7.196;2023-04-01T18:48:39;2.17;;;2.07;;
9823;SDS011;4951;50.778;7.196;2023-04-01T18:51:19;2.27;;;2.07;;
9823;SDS011;4951;50.778;7.196;2023-04-01T18:54:13;2.10;;;1.93;;
9823;SDS011;4951;50.778;7.196;2023-04-01T18:56:48;2.27;;;2.17;;
9823;SDS011;4951;50.778;7.196;2023-04-01T18:59:18;2.07;;;1.90;;
9823;SDS011;4951;50.778;7.196;2023-04-01T19:02:02;1.93;;;1.83;;
9823;SDS011;4951;50.778;7.196;2023-04-01T19:04:47;3.03;;;2.13;;
9823;SDS011;4951;50.778;7.196;2023-04-01T19:07:33;2.50;;;2.30;;
9823;SDS011;4951;50.778;7.196;2023-04-01T19:10:13;2.53;;;2.07;;
9823;SDS011;4951;50.778;7.196;2023-04-01T19:12:46;2.80;;;2.60;;
9823;SDS011;4951;50.778;7.196;2023-04-01T19:15:32;2.80;;;2.13;;
9823;SDS011;4951;50.778;7.196;2023-04-01T19:21:32;2.33;;;2.20;;
9823;SDS011;4951;50.778;7.196;2023-04-01T19:24:35;2.73;;;2.53;;
9823;SDS011;4951;50.778;7.196;2023-04-01T19:27:35;3.40;;;3.20;;
9823;SDS011;4951;50.778;7.196;2023-04-01T19:30:19;2.90;;;2.70;;
9823;SDS011;4951;50.778;7.196;2023-04-01T19:33:03;2.90;;;2.70;;
9823;SDS011;4951;50.778;7.196;2023-04-01T19:36:00;3.07;;;2.80;;
9823;SDS011;4951;50.778;7.196;2023-04-01T19:38:52;3.33;;;3.13;;
9823;SDS011;4951;50.778;7.196;2023-04-01T19:41:31;3.80;;;3.50;;
9823;SDS011;4951;50.778;7.196;2023-04-01T19:44:20;3.63;;;2.93;;
9823;SDS011;4951;50.778;7.196;2023-04-01T19:47:03;3.80;;;3.60;;
9823;SDS011;4951;50.778;7.196;2023-04-01T19:49:47;3.43;;;3.13;;
9823;SDS011;4951;50.778;7.196;2023-04-01T19:52:23;3.73;;;3.43;;
9823;SDS011;4951;50.778;7.196;2023-04-01T19:55:17;3.87;;;3.57;;
9823;SDS011;4951;50.778;7.196;2023-04-01T19:58:04;3.83;;;3.53;;
9823;SDS011;4951;50.778;7.196;2023-04-01T20:00:41;3.80;;;3.50;;
9823;SDS011;4951;50.778;7.196;2023-04-01T20:03:21;4.53;;;4.00;;